sensor_id;sensor_type;location;lat;lon;timestamp;P1;durP1;ratioP1;P2;durP2;ratioP2
46863;SDS011;32598;50.204;6.408;2023-01-19T00:00:48;34.47;;;21.92;;
46863;SDS011;32598;50.204;6.408;2023-01-19T00:03:13;35.92;;;21.45;;
46863;SDS011;32598;50.204;6.408;2023-01-19T00:05:40;30.95;;;20.58;;
46863;SDS011;32598;50.204;6.408;2023-01-19T00:08:05;34.40;;;20.55;;
46863;SDS011;32598;50.204;6.408;2023-01-19T00:10:38;34.03;;;21.85;;
46863;SDS011;32598;50.204;6.408;2023-01-19T00:13:03;35.65;;;20.60;;
46863;SDS011;32598;50.204;6.408;2023-01-19T00:15:29;33.30;;;21.05;;
46863;SDS011;32598;50.204;6.408;2023-01-19T00:17:54;33.95;;;20.73;;
46863;SDS011;32598;50.204;6.408;2023-01-19T00:20:19;36.22;;;21.48;;
46863;SDS011;32598;50.204;6.408;2023-01-19T00:22:44;31.80;;;20.52;;
46863;SDS011;32598;50.204;6.408;2023-01-19T00:25:14;39.33;;;21.63;;
46863;SDS011;32598;50.204;6.408;2023-01-19T00:27:39;35.15;;;22.02;;
46863;SDS011;32598;50.204;6.408;2023-01-19T00:30:05;38.58;;;21.70;;
46863;SDS011;32598;50.204;6.408;2023-01-19T00:32:30;38.30;;;21.48;;
46863;SDS011;32598;50.204;6.408;2023-01-19T00:34:55;37.70;;;22.02;;
46863;SDS011;32598;50.204;6.408;2023-01-19T00:37:20;33.15;;;21.83;;
46863;SDS011;32598;50.204;6.408;2023-01-19T00:39:46;37.67;;;22.30;;
46863;SDS011;32598;50.204;6.408;2023-01-19T00:42:11;37.45;;;22.40;;
46863;SDS011;32598;50.204;6.408;2023-01-19T00:47:21;35.25;;;22.20;;
46863;SDS011;32598;50.204;6.408;2023-01-19T00:49:46;34.45;;;22.73;;
46863;SDS011;32598;50.204;6.408;2023-01-19T00:52:11;40.78;;;24.40;;
46863;SDS011;32598;50.204;6.408;2023-01-19T00:54:36;37.65;;;22.35;;
46863;SDS011;32598;50.204;6.408;2023-01-19T00:57:01;36.47;;;22.00;;
46863;SDS011;32598;50.204;6.408;2023-01-19T00:59:27;36.22;;;22.25;;
46863;SDS011;32598;50.204;6.408;2023-01-19T01:01:52;34.15;;;22.38;;
46863;SDS011;32598;50.204;6.408;2023-01-19T01:04:17;37.45;;;23.15;;
46863;SDS011;32598;50.204;6.408;2023-01-19T01:06:43;36.17;;;22.50;;
46863;SDS011;32598;50.204;6.408;2023-01-19T01:09:08;38.40;;;23.17;;
46863;SDS011;32598;50.204;6.408;2023-01-19T01:11:38;37.22;;;23.30;;
46863;SDS011;32598;50.204;6.408;2023-01-19T01:14:03;38.65;;;25.23;;
46863;SDS011;32598;50.204;6.408;2023-01-19T01:16:29;41.38;;;25.80;;
46863;SDS011;32598;50.204;6.408;2023-01-19T01:18:54;42.33;;;24.35;;
46863;SDS011;32598;50.204;6.408;2023-01-19T01:21:19;41.38;;;24.58;;
46863;SDS011;32598;50.204;6.408;2023-01-19T01:23:44;40.30;;;24.77;;
46863;SDS011;32598;50.204;6.408;2023-01-19T01:26:09;39.75;;;25.52;;
46863;SDS011;32598;50.204;6.408;2023-01-19T01:28:35;42.70;;;25.98;;
46863;SDS011;32598;50.204;6.408;2023-01-19T01:31:00;41.30;;;25.98;;
46863;SDS011;32598;50.204;6.408;2023-01-19T01:33:25;40.80;;;25.17;;
46863;SDS011;32598;50.204;6.408;2023-01-19T01:35:51;41.92;;;25.98;;
46863;SDS011;32598;50.204;6.408;2023-01-19T01:38:16;42.60;;;26.13;;
46863;SDS011;32598;50.204;6.408;2023-01-19T01:40:41;42.67;;;27.25;;
46863;SDS011;32598;50.204;6.408;2023-01-19T01:43:14;40.83;;;25.73;;
46863;SDS011;32598;50.204;6.408;2023-01-19T01:45:39;41.85;;;27.17;;
46863;SDS011;32598;50.204;6.408;2023-01-19T01:50:47;45.42;;;27.40;;
46863;SDS011;32598;50.204;6.408;2023-01-19T01:53:33;43.25;;;28.02;;
46863;SDS011;32598;50.204;6.408;2023-01-19T01:55:58;48.35;;;28.30;;
46863;SDS011;32598;50.204;6.408;2023-01-19T01:58:24;48.38;;;27.65;;
46863;SDS011;32598;50.204;6.408;2023-01-19T02:00:49;47.70;;;26.55;;
46863;SDS011;32598;50.204;6.408;2023-01-19T02:03:33;43.40;;;26.58;;
46863;SDS011;32598;50.204;6.408;2023-01-19T02:06:00;47.17;;;28.40;;
46863;SDS011;32598;50.204;6.408;2023-01-19T02:08:47;38.22;;;25.23;;
46863;SDS011;32598;50.204;6.408;2023-01-19T02:11:29;45.05;;;27.58;;
46863;SDS011;32598;50.204;6.408;2023-01-19T02:14:14;42.00;;;26.52;;
46863;SDS011;32598;50.204;6.408;2023-01-19T02:16:39;44.42;;;26.85;;
46863;SDS011;32598;50.204;6.408;2023-01-19T02:19:06;45.33;;;27.50;;
46863;SDS011;32598;50.204;6.408;2023-01-19T02:24:24;40.92;;;25.25;;
46863;SDS011;32598;50.204;6.408;2023-01-19T02:26:49;40.47;;;25.48;;
46863;SDS011;32598;50.204;6.408;2023-01-19T02:29:16;44.15;;;24.45;;
46863;SDS011;32598;50.204;6.408;2023-01-19T02:31:42;39.55;;;24.55;;
46863;SDS011;32598;50.204;6.408;2023-01-19T02:34:09;43.40;;;26.10;;
46863;SDS011;32598;50.204;6.408;2023-01-19T02:36:40;40.10;;;24.80;;
46863;SDS011;32598;50.204;6.408;2023-01-19T02:39:07;42.03;;;24.90;;
46863;SDS011;32598;50.204;6.408;2023-01-19T02:41:33;44.25;;;25.83;;
46863;SDS011;32598;50.204;6.408;2023-01-19T02:44:00;43.20;;;26.60;;
46863;SDS011;32598;50.204;6.408;2023-01-19T02:46:25;43.00;;;26.90;;
46863;SDS011;32598;50.204;6.408;2023-01-19T02:48:51;39.08;;;26.05;;
46863;SDS011;32598;50.204;6.408;2023-01-19T02:51:17;44.80;;;26.45;;
46863;SDS011;32598;50.204;6.408;2023-01-19T02:59:00;45.03;;;27.55;;
46863;SDS011;32598;50.204;6.408;2023-01-19T03:04:22;52.50;;;28.98;;
46863;SDS011;32598;50.204;6.408;2023-01-19T03:06:50;48.90;;;29.52;;
46863;SDS011;32598;50.204;6.408;2023-01-19T03:09:27;50.55;;;29.05;;
46863;SDS011;32598;50.204;6.408;2023-01-19T03:12:05;46.05;;;28.13;;
46863;SDS011;32598;50.204;6.408;2023-01-19T03:14:33;43.38;;;27.23;;
46863;SDS011;32598;50.204;6.408;2023-01-19T03:17:02;43.42;;;26.75;;
46863;SDS011;32598;50.204;6.408;2023-01-19T03:19:33;43.35;;;27.15;;
46863;SDS011;32598;50.204;6.408;2023-01-19T03:22:02;45.42;;;27.55;;
46863;SDS011;32598;50.204;6.408;2023-01-19T03:24:28;46.83;;;27.45;;
46863;SDS011;32598;50.204;6.408;2023-01-19T03:26:59;45.47;;;27.13;;
46863;SDS011;32598;50.204;6.408;2023-01-19T03:29:27;41.13;;;26.63;;
46863;SDS011;32598;50.204;6.408;2023-01-19T03:31:52;46.03;;;26.80;;
46863;SDS011;32598;50.204;6.408;2023-01-19T03:34:18;44.00;;;26.33;;
46863;SDS011;32598;50.204;6.408;2023-01-19T03:36:50;44.45;;;25.50;;
46863;SDS011;32598;50.204;6.408;2023-01-19T03:39:17;44.25;;;26.13;;
46863;SDS011;32598;50.204;6.408;2023-01-19T03:41:45;43.53;;;26.83;;
46863;SDS011;32598;50.204;6.408;2023-01-19T03:44:12;41.03;;;26.52;;
46863;SDS011;32598;50.204;6.408;2023-01-19T03:46:37;44.45;;;26.08;;
46863;SDS011;32598;50.204;6.408;2023-01-19T03:49:03;41.53;;;25.92;;
46863;SDS011;32598;50.204;6.408;2023-01-19T03:51:28;48.50;;;27.27;;
46863;SDS011;32598;50.204;6.408;2023-01-19T03:53:54;41.00;;;24.90;;
46863;SDS011;32598;50.204;6.408;2023-01-19T03:56:22;43.72;;;25.77;;
46863;SDS011;32598;50.204;6.408;2023-01-19T03:58:48;39.20;;;24.70;;
46863;SDS011;32598;50.204;6.408;2023-01-19T04:01:14;43.85;;;25.33;;
46863;SDS011;32598;50.204;6.408;2023-01-19T04:03:40;40.00;;;24.58;;
46863;SDS011;32598;50.204;6.408;2023-01-19T04:06:06;41.15;;;24.88;;
46863;SDS011;32598;50.204;6.408;2023-01-19T04:08:31;36.50;;;24.27;;
46863;SDS011;32598;50.204;6.408;2023-01-19T04:10:56;40.25;;;23.40;;
46863;SDS011;32598;50.204;6.408;2023-01-19T04:13:21;41.67;;;24.15;;
46863;SDS011;32598;50.204;6.408;2023-01-19T04:15:47;40.80;;;23.00;;
46863;SDS011;32598;50.204;6.408;2023-01-19T04:18:12;36.58;;;22.52;;
46863;SDS011;32598;50.204;6.408;2023-01-19T04:20:37;38.20;;;22.63;;
46863;SDS011;32598;50.204;6.408;2023-01-19T04:23:03;37.38;;;22.45;;
46863;SDS011;32598;50.204;6.408;2023-01-19T04:25:29;33.63;;;21.63;;
46863;SDS011;32598;50.204;6.408;2023-01-19T04:27:54;39.95;;;21.85;;
46863;SDS011;32598;50.204;6.408;2023-01-19T04:30:22;36.47;;;21.60;;
46863;SDS011;32598;50.204;6.408;2023-01-19T04:32:47;34.90;;;20.67;;
46863;SDS011;32598;50.204;6.408;2023-01-19T04:35:12;33.20;;;20.70;;
46863;SDS011;32598;50.204;6.408;2023-01-19T04:37:37;37.28;;;22.63;;
46863;SDS011;32598;50.204;6.408;2023-01-19T04:40:03;33.53;;;20.77;;
46863;SDS011;32598;50.204;6.408;2023-01-19T04:42:28;34.45;;;21.17;;
46863;SDS011;32598;50.204;6.408;2023-01-19T04:44:53;36.92;;;22.15;;
46863;SDS011;32598;50.204;6.408;2023-01-19T04:47:18;30.52;;;19.80;;
46863;SDS011;32598;50.204;6.408;2023-01-19T04:49:44;35.80;;;21.35;;
46863;SDS011;32598;50.204;6.408;2023-01-19T04:52:09;33.25;;;21.77;;
46863;SDS011;32598;50.204;6.408;2023-01-19T04:54:34;36.22;;;21.50;;
46863;SDS011;32598;50.204;6.408;2023-01-19T04:57:00;34.35;;;21.40;;
46863;SDS011;32598;50.204;6.408;2023-01-19T04:59:25;36.17;;;21.33;;
46863;SDS011;32598;50.204;6.408;2023-01-19T05:01:50;32.40;;;20.42;;
46863;SDS011;32598;50.204;6.408;2023-01-19T05:04:16;35.03;;;21.58;;
46863;SDS011;32598;50.204;6.408;2023-01-19T05:06:41;35.95;;;21.27;;
46863;SDS011;32598;50.204;6.408;2023-01-19T05:09:06;32.38;;;20.48;;
46863;SDS011;32598;50.204;6.408;2023-01-19T05:11:33;33.80;;;21.38;;
46863;SDS011;32598;50.204;6.408;2023-01-19T05:13:58;33.15;;;20.00;;
46863;SDS011;32598;50.204;6.408;2023-01-19T05:16:23;32.60;;;19.45;;
46863;SDS011;32598;50.204;6.408;2023-01-19T05:18:48;32.28;;;19.80;;
46863;SDS011;32598;50.204;6.408;2023-01-19T05:21:14;31.70;;;19.05;;
46863;SDS011;32598;50.204;6.408;2023-01-19T05:23:39;31.25;;;18.60;;
46863;SDS011;32598;50.204;6.408;2023-01-19T05:26:05;30.27;;;18.42;;
46863;SDS011;32598;50.204;6.408;2023-01-19T05:28:30;30.23;;;17.75;;
46863;SDS011;32598;50.204;6.408;2023-01-19T05:30:56;30.98;;;17.75;;
46863;SDS011;32598;50.204;6.408;2023-01-19T05:33:21;28.67;;;17.27;;
46863;SDS011;32598;50.204;6.408;2023-01-19T05:35:53;30.60;;;17.77;;
46863;SDS011;32598;50.204;6.408;2023-01-19T05:38:18;28.58;;;17.90;;
46863;SDS011;32598;50.204;6.408;2023-01-19T05:40:44;28.48;;;17.15;;
46863;SDS011;32598;50.204;6.408;2023-01-19T05:43:09;27.05;;;16.15;;
46863;SDS011;32598;50.204;6.408;2023-01-19T05:45:35;27.38;;;16.35;;
46863;SDS011;32598;50.204;6.408;2023-01-19T05:48:03;29.05;;;17.60;;
46863;SDS011;32598;50.204;6.408;2023-01-19T05:50:28;27.73;;;16.70;;
46863;SDS011;32598;50.204;6.408;2023-01-19T05:52:53;25.03;;;16.57;;
46863;SDS011;32598;50.204;6.408;2023-01-19T05:55:19;27.45;;;16.98;;
46863;SDS011;32598;50.204;6.408;2023-01-19T05:57:44;26.05;;;15.57;;
46863;SDS011;32598;50.204;6.408;2023-01-19T06:00:10;25.60;;;16.08;;
46863;SDS011;32598;50.204;6.408;2023-01-19T06:02:35;25.70;;;16.20;;
46863;SDS011;32598;50.204;6.408;2023-01-19T06:05:00;25.60;;;16.05;;
46863;SDS011;32598;50.204;6.408;2023-01-19T06:07:26;22.67;;;16.00;;
46863;SDS011;32598;50.204;6.408;2023-01-19T06:09:51;24.75;;;16.00;;
46863;SDS011;32598;50.204;6.408;2023-01-19T06:12:16;24.33;;;15.85;;
46863;SDS011;32598;50.204;6.408;2023-01-19T06:14:41;23.75;;;15.40;;
46863;SDS011;32598;50.204;6.408;2023-01-19T06:17:07;24.65;;;15.15;;
46863;SDS011;32598;50.204;6.408;2023-01-19T06:19:32;29.05;;;16.63;;
46863;SDS011;32598;50.204;6.408;2023-01-19T06:21:58;25.10;;;16.25;;
46863;SDS011;32598;50.204;6.408;2023-01-19T06:24:23;28.20;;;15.75;;
46863;SDS011;32598;50.204;6.408;2023-01-19T06:26:49;27.02;;;16.55;;
46863;SDS011;32598;50.204;6.408;2023-01-19T06:29:14;24.67;;;15.50;;
46863;SDS011;32598;50.204;6.408;2023-01-19T06:31:40;25.40;;;15.52;;
46863;SDS011;32598;50.204;6.408;2023-01-19T06:34:05;30.23;;;17.02;;
46863;SDS011;32598;50.204;6.408;2023-01-19T06:36:30;26.92;;;16.58;;
46863;SDS011;32598;50.204;6.408;2023-01-19T06:38:56;23.48;;;15.02;;
46863;SDS011;32598;50.204;6.408;2023-01-19T06:41:21;23.30;;;15.75;;
46863;SDS011;32598;50.204;6.408;2023-01-19T06:43:46;25.63;;;16.02;;
46863;SDS011;32598;50.204;6.408;2023-01-19T06:46:11;27.92;;;16.02;;
46863;SDS011;32598;50.204;6.408;2023-01-19T06:48:37;28.85;;;15.90;;
46863;SDS011;32598;50.204;6.408;2023-01-19T06:51:02;26.48;;;14.98;;
46863;SDS011;32598;50.204;6.408;2023-01-19T06:53:29;27.45;;;14.35;;
46863;SDS011;32598;50.204;6.408;2023-01-19T06:56:00;22.48;;;13.65;;
46863;SDS011;32598;50.204;6.408;2023-01-19T06:58:26;21.15;;;12.88;;
46863;SDS011;32598;50.204;6.408;2023-01-19T07:00:52;23.75;;;14.77;;
46863;SDS011;32598;50.204;6.408;2023-01-19T07:03:20;22.08;;;13.35;;
46863;SDS011;32598;50.204;6.408;2023-01-19T07:05:49;22.58;;;13.05;;
46863;SDS011;32598;50.204;6.408;2023-01-19T07:08:14;22.45;;;13.07;;
46863;SDS011;32598;50.204;6.408;2023-01-19T07:10:40;24.92;;;13.30;;
46863;SDS011;32598;50.204;6.408;2023-01-19T07:13:05;24.65;;;14.25;;
46863;SDS011;32598;50.204;6.408;2023-01-19T07:15:30;22.50;;;13.48;;
46863;SDS011;32598;50.204;6.408;2023-01-19T07:17:58;22.33;;;12.85;;
46863;SDS011;32598;50.204;6.408;2023-01-19T07:20:25;24.45;;;14.55;;
46863;SDS011;32598;50.204;6.408;2023-01-19T07:22:54;20.73;;;12.57;;
46863;SDS011;32598;50.204;6.408;2023-01-19T07:25:19;19.70;;;13.05;;
46863;SDS011;32598;50.204;6.408;2023-01-19T07:27:45;24.55;;;13.70;;
46863;SDS011;32598;50.204;6.408;2023-01-19T07:30:10;19.77;;;13.07;;
46863;SDS011;32598;50.204;6.408;2023-01-19T07:32:35;23.70;;;13.45;;
46863;SDS011;32598;50.204;6.408;2023-01-19T07:35:00;25.48;;;14.77;;
46863;SDS011;32598;50.204;6.408;2023-01-19T07:37:26;20.38;;;14.13;;
46863;SDS011;32598;50.204;6.408;2023-01-19T07:39:51;23.95;;;12.90;;
46863;SDS011;32598;50.204;6.408;2023-01-19T07:42:16;22.02;;;12.95;;
46863;SDS011;32598;50.204;6.408;2023-01-19T07:44:41;21.95;;;13.70;;
46863;SDS011;32598;50.204;6.408;2023-01-19T07:47:07;27.00;;;13.95;;
46863;SDS011;32598;50.204;6.408;2023-01-19T07:49:35;19.40;;;12.63;;
46863;SDS011;32598;50.204;6.408;2023-01-19T07:52:00;22.17;;;13.55;;
46863;SDS011;32598;50.204;6.408;2023-01-19T07:54:25;21.15;;;12.98;;
46863;SDS011;32598;50.204;6.408;2023-01-19T07:56:53;22.42;;;12.82;;
46863;SDS011;32598;50.204;6.408;2023-01-19T07:59:19;22.92;;;13.20;;
46863;SDS011;32598;50.204;6.408;2023-01-19T08:01:44;25.75;;;12.77;;
46863;SDS011;32598;50.204;6.408;2023-01-19T08:04:09;19.95;;;13.00;;
46863;SDS011;32598;50.204;6.408;2023-01-19T08:06:36;18.95;;;12.40;;
46863;SDS011;32598;50.204;6.408;2023-01-19T08:09:01;21.02;;;12.43;;
46863;SDS011;32598;50.204;6.408;2023-01-19T08:11:29;20.75;;;12.48;;
46863;SDS011;32598;50.204;6.408;2023-01-19T08:13:54;25.65;;;12.60;;
46863;SDS011;32598;50.204;6.408;2023-01-19T08:16:19;22.80;;;12.52;;
46863;SDS011;32598;50.204;6.408;2023-01-19T08:18:45;21.05;;;11.90;;
46863;SDS011;32598;50.204;6.408;2023-01-19T08:21:10;22.25;;;12.75;;
46863;SDS011;32598;50.204;6.408;2023-01-19T08:23:35;21.15;;;12.60;;
46863;SDS011;32598;50.204;6.408;2023-01-19T08:26:00;22.33;;;13.23;;
46863;SDS011;32598;50.204;6.408;2023-01-19T08:28:26;25.85;;;12.15;;
46863;SDS011;32598;50.204;6.408;2023-01-19T08:30:51;21.52;;;12.18;;
46863;SDS011;32598;50.204;6.408;2023-01-19T08:33:20;22.02;;;11.38;;
46863;SDS011;32598;50.204;6.408;2023-01-19T08:35:47;20.55;;;12.23;;
46863;SDS011;32598;50.204;6.408;2023-01-19T08:38:13;21.92;;;11.77;;
46863;SDS011;32598;50.204;6.408;2023-01-19T08:40:39;22.33;;;11.85;;
46863;SDS011;32598;50.204;6.408;2023-01-19T08:43:09;22.88;;;11.65;;
46863;SDS011;32598;50.204;6.408;2023-01-19T08:45:35;21.60;;;11.98;;
46863;SDS011;32598;50.204;6.408;2023-01-19T08:48:01;18.67;;;12.18;;
46863;SDS011;32598;50.204;6.408;2023-01-19T08:50:27;21.40;;;11.40;;
46863;SDS011;32598;50.204;6.408;2023-01-19T08:52:56;24.80;;;11.80;;
46863;SDS011;32598;50.204;6.408;2023-01-19T08:55:22;22.65;;;11.82;;
46863;SDS011;32598;50.204;6.408;2023-01-19T08:57:49;21.65;;;12.18;;
46863;SDS011;32598;50.204;6.408;2023-01-19T09:00:15;20.52;;;11.82;;
46863;SDS011;32598;50.204;6.408;2023-01-19T09:02:40;22.80;;;12.98;;
46863;SDS011;32598;50.204;6.408;2023-01-19T09:05:05;19.08;;;11.50;;
46863;SDS011;32598;50.204;6.408;2023-01-19T09:07:31;20.08;;;11.40;;
46863;SDS011;32598;50.204;6.408;2023-01-19T09:09:56;22.98;;;11.63;;
46863;SDS011;32598;50.204;6.408;2023-01-19T09:12:21;18.08;;;12.02;;
46863;SDS011;32598;50.204;6.408;2023-01-19T09:14:46;23.70;;;13.07;;
46863;SDS011;32598;50.204;6.408;2023-01-19T09:17:11;22.60;;;12.55;;
46863;SDS011;32598;50.204;6.408;2023-01-19T09:19:39;17.80;;;11.40;;
46863;SDS011;32598;50.204;6.408;2023-01-19T09:22:04;23.30;;;12.75;;
46863;SDS011;32598;50.204;6.408;2023-01-19T09:24:29;24.63;;;12.75;;
46863;SDS011;32598;50.204;6.408;2023-01-19T09:26:55;18.38;;;12.25;;
46863;SDS011;32598;50.204;6.408;2023-01-19T09:29:20;23.38;;;12.32;;
46863;SDS011;32598;50.204;6.408;2023-01-19T09:31:46;22.10;;;11.85;;
46863;SDS011;32598;50.204;6.408;2023-01-19T09:34:12;24.38;;;12.63;;
46863;SDS011;32598;50.204;6.408;2023-01-19T09:36:38;24.02;;;11.85;;
46863;SDS011;32598;50.204;6.408;2023-01-19T09:39:03;23.33;;;12.50;;
46863;SDS011;32598;50.204;6.408;2023-01-19T09:41:29;19.85;;;12.27;;
46863;SDS011;32598;50.204;6.408;2023-01-19T09:43:57;18.88;;;11.13;;
46863;SDS011;32598;50.204;6.408;2023-01-19T09:48:50;23.25;;;12.20;;
46863;SDS011;32598;50.204;6.408;2023-01-19T09:51:18;19.30;;;11.35;;
46863;SDS011;32598;50.204;6.408;2023-01-19T09:53:58;20.70;;;11.18;;
46863;SDS011;32598;50.204;6.408;2023-01-19T09:56:24;21.42;;;11.25;;
46863;SDS011;32598;50.204;6.408;2023-01-19T09:58:51;21.38;;;11.70;;
46863;SDS011;32598;50.204;6.408;2023-01-19T10:03:52;22.23;;;11.80;;
46863;SDS011;32598;50.204;6.408;2023-01-19T10:06:18;17.55;;;11.35;;
46863;SDS011;32598;50.204;6.408;2023-01-19T10:08:51;21.70;;;11.65;;
46863;SDS011;32598;50.204;6.408;2023-01-19T10:11:24;20.30;;;11.52;;
46863;SDS011;32598;50.204;6.408;2023-01-19T10:13:52;22.75;;;11.77;;
46863;SDS011;32598;50.204;6.408;2023-01-19T10:19:22;26.48;;;13.85;;
46863;SDS011;32598;50.204;6.408;2023-01-19T10:21:49;30.15;;;16.98;;
46863;SDS011;32598;50.204;6.408;2023-01-19T10:24:26;39.70;;;19.77;;
46863;SDS011;32598;50.204;6.408;2023-01-19T10:26:53;39.53;;;22.02;;
46863;SDS011;32598;50.204;6.408;2023-01-19T10:31:47;39.78;;;21.05;;
46863;SDS011;32598;50.204;6.408;2023-01-19T10:34:13;36.20;;;19.15;;
46863;SDS011;32598;50.204;6.408;2023-01-19T10:36:42;24.00;;;14.70;;
46863;SDS011;32598;50.204;6.408;2023-01-19T10:39:08;23.92;;;14.15;;
46863;SDS011;32598;50.204;6.408;2023-01-19T10:44:01;23.17;;;13.30;;
46863;SDS011;32598;50.204;6.408;2023-01-19T10:46:45;22.83;;;14.05;;
46863;SDS011;32598;50.204;6.408;2023-01-19T10:51:46;23.10;;;12.07;;
46863;SDS011;32598;50.204;6.408;2023-01-19T10:54:12;28.17;;;14.05;;
46863;SDS011;32598;50.204;6.408;2023-01-19T10:56:38;42.38;;;15.00;;
46863;SDS011;32598;50.204;6.408;2023-01-19T10:59:04;26.90;;;13.35;;
46863;SDS011;32598;50.204;6.408;2023-01-19T11:01:29;21.13;;;12.90;;
46863;SDS011;32598;50.204;6.408;2023-01-19T11:03:55;20.40;;;11.80;;
46863;SDS011;32598;50.204;6.408;2023-01-19T11:06:29;23.77;;;12.68;;
46863;SDS011;32598;50.204;6.408;2023-01-19T11:09:08;20.98;;;12.23;;
46863;SDS011;32598;50.204;6.408;2023-01-19T11:11:39;26.40;;;11.80;;
46863;SDS011;32598;50.204;6.408;2023-01-19T11:14:09;20.80;;;11.70;;
46863;SDS011;32598;50.204;6.408;2023-01-19T11:16:35;20.88;;;12.18;;
46863;SDS011;32598;50.204;6.408;2023-01-19T11:19:02;26.00;;;12.27;;
46863;SDS011;32598;50.204;6.408;2023-01-19T11:21:28;24.77;;;12.70;;
46863;SDS011;32598;50.204;6.408;2023-01-19T11:23:58;25.02;;;12.05;;
46863;SDS011;32598;50.204;6.408;2023-01-19T11:26:27;23.27;;;12.60;;
46863;SDS011;32598;50.204;6.408;2023-01-19T11:28:53;21.70;;;10.77;;
46863;SDS011;32598;50.204;6.408;2023-01-19T11:33:56;22.05;;;10.82;;
46863;SDS011;32598;50.204;6.408;2023-01-19T11:36:22;20.05;;;11.90;;
46863;SDS011;32598;50.204;6.408;2023-01-19T11:38:52;25.48;;;12.48;;
46863;SDS011;32598;50.204;6.408;2023-01-19T11:41:18;20.80;;;11.68;;
46863;SDS011;32598;50.204;6.408;2023-01-19T11:43:45;29.02;;;13.38;;
46863;SDS011;32598;50.204;6.408;2023-01-19T11:46:11;28.00;;;12.38;;
46863;SDS011;32598;50.204;6.408;2023-01-19T11:53:47;18.75;;;10.95;;
46863;SDS011;32598;50.204;6.408;2023-01-19T11:56:15;22.73;;;11.85;;
46863;SDS011;32598;50.204;6.408;2023-01-19T11:58:42;25.17;;;11.77;;
46863;SDS011;32598;50.204;6.408;2023-01-19T12:01:24;24.17;;;12.35;;
46863;SDS011;32598;50.204;6.408;2023-01-19T12:06:22;23.50;;;12.05;;
46863;SDS011;32598;50.204;6.408;2023-01-19T12:08:53;21.67;;;10.93;;
46863;SDS011;32598;50.204;6.408;2023-01-19T12:11:27;19.85;;;11.73;;
46863;SDS011;32598;50.204;6.408;2023-01-19T12:13:55;19.52;;;11.25;;
46863;SDS011;32598;50.204;6.408;2023-01-19T12:16:21;24.08;;;11.27;;
46863;SDS011;32598;50.204;6.408;2023-01-19T12:18:49;20.95;;;11.93;;
46863;SDS011;32598;50.204;6.408;2023-01-19T12:21:16;21.05;;;10.52;;
46863;SDS011;32598;50.204;6.408;2023-01-19T12:23:47;19.60;;;10.68;;
46863;SDS011;32598;50.204;6.408;2023-01-19T12:28:41;22.10;;;11.50;;
46863;SDS011;32598;50.204;6.408;2023-01-19T12:31:08;20.15;;;10.88;;
46863;SDS011;32598;50.204;6.408;2023-01-19T12:33:34;21.30;;;10.57;;
46863;SDS011;32598;50.204;6.408;2023-01-19T12:36:04;20.45;;;11.25;;
46863;SDS011;32598;50.204;6.408;2023-01-19T12:38:35;21.55;;;11.18;;
46863;SDS011;32598;50.204;6.408;2023-01-19T12:43:41;20.58;;;11.02;;
46863;SDS011;32598;50.204;6.408;2023-01-19T12:46:23;18.27;;;10.65;;
46863;SDS011;32598;50.204;6.408;2023-01-19T12:48:50;16.58;;;9.95;;
46863;SDS011;32598;50.204;6.408;2023-01-19T12:51:22;22.92;;;10.65;;
46863;SDS011;32598;50.204;6.408;2023-01-19T12:53:52;18.20;;;9.90;;
46863;SDS011;32598;50.204;6.408;2023-01-19T12:56:17;19.23;;;9.45;;
46863;SDS011;32598;50.204;6.408;2023-01-19T12:58:46;19.10;;;9.85;;
46863;SDS011;32598;50.204;6.408;2023-01-19T13:01:13;22.67;;;11.00;;
46863;SDS011;32598;50.204;6.408;2023-01-19T13:03:58;21.17;;;9.40;;
46863;SDS011;32598;50.204;6.408;2023-01-19T13:12:18;15.20;;;9.18;;
46863;SDS011;32598;50.204;6.408;2023-01-19T13:14:44;19.10;;;9.73;;
46863;SDS011;32598;50.204;6.408;2023-01-19T13:19:53;14.23;;;7.85;;
46863;SDS011;32598;50.204;6.408;2023-01-19T13:22:47;15.13;;;9.00;;
46863;SDS011;32598;50.204;6.408;2023-01-19T13:25:14;20.17;;;10.63;;
46863;SDS011;32598;50.204;6.408;2023-01-19T13:27:45;16.98;;;9.85;;
46863;SDS011;32598;50.204;6.408;2023-01-19T13:30:11;16.25;;;9.52;;
46863;SDS011;32598;50.204;6.408;2023-01-19T13:32:39;18.77;;;10.35;;
46863;SDS011;32598;50.204;6.408;2023-01-19T13:35:10;19.50;;;10.68;;
46863;SDS011;32598;50.204;6.408;2023-01-19T13:37:37;16.35;;;10.07;;
46863;SDS011;32598;50.204;6.408;2023-01-19T13:40:03;21.88;;;10.77;;
46863;SDS011;32598;50.204;6.408;2023-01-19T13:42:36;17.15;;;10.93;;
46863;SDS011;32598;50.204;6.408;2023-01-19T13:45:05;18.85;;;10.60;;
46863;SDS011;32598;50.204;6.408;2023-01-19T13:47:36;22.58;;;11.25;;
46863;SDS011;32598;50.204;6.408;2023-01-19T13:50:03;20.33;;;10.98;;
46863;SDS011;32598;50.204;6.408;2023-01-19T13:52:28;19.35;;;10.70;;
46863;SDS011;32598;50.204;6.408;2023-01-19T13:54:55;17.20;;;10.95;;
46863;SDS011;32598;50.204;6.408;2023-01-19T14:02:29;20.23;;;10.65;;
46863;SDS011;32598;50.204;6.408;2023-01-19T14:04:54;18.70;;;10.02;;
46863;SDS011;32598;50.204;6.408;2023-01-19T14:07:21;21.13;;;11.63;;
46863;SDS011;32598;50.204;6.408;2023-01-19T14:10:05;18.30;;;10.75;;
46863;SDS011;32598;50.204;6.408;2023-01-19T14:12:33;18.92;;;10.73;;
46863;SDS011;32598;50.204;6.408;2023-01-19T14:14:58;21.45;;;10.18;;
46863;SDS011;32598;50.204;6.408;2023-01-19T14:17:26;18.83;;;9.77;;
46863;SDS011;32598;50.204;6.408;2023-01-19T14:19:55;22.45;;;11.05;;
46863;SDS011;32598;50.204;6.408;2023-01-19T14:22:35;22.08;;;12.02;;
46863;SDS011;32598;50.204;6.408;2023-01-19T14:25:20;18.80;;;10.68;;
46863;SDS011;32598;50.204;6.408;2023-01-19T14:27:45;20.38;;;10.40;;
46863;SDS011;32598;50.204;6.408;2023-01-19T14:30:16;20.55;;;10.65;;
46863;SDS011;32598;50.204;6.408;2023-01-19T14:32:44;19.65;;;10.75;;
46863;SDS011;32598;50.204;6.408;2023-01-19T14:37:35;47.65;;;22.27;;
46863;SDS011;32598;50.204;6.408;2023-01-19T14:42:37;16.63;;;9.85;;
46863;SDS011;32598;50.204;6.408;2023-01-19T14:45:50;28.02;;;14.40;;
46863;SDS011;32598;50.204;6.408;2023-01-19T14:48:00;20.00;;;11.90;;
46863;SDS011;32598;50.204;6.408;2023-01-19T14:50:31;25.20;;;13.77;;
46863;SDS011;32598;50.204;6.408;2023-01-19T14:53:16;26.20;;;15.15;;
46863;SDS011;32598;50.204;6.408;2023-01-19T14:55:46;20.73;;;12.10;;
46863;SDS011;32598;50.204;6.408;2023-01-19T14:58:12;16.42;;;9.98;;
46863;SDS011;32598;50.204;6.408;2023-01-19T15:00:38;16.23;;;8.20;;
46863;SDS011;32598;50.204;6.408;2023-01-19T15:03:04;14.70;;;8.35;;
46863;SDS011;32598;50.204;6.408;2023-01-19T15:05:30;17.60;;;8.70;;
46863;SDS011;32598;50.204;6.408;2023-01-19T15:07:55;16.77;;;8.93;;
46863;SDS011;32598;50.204;6.408;2023-01-19T15:10:21;16.95;;;8.05;;
46863;SDS011;32598;50.204;6.408;2023-01-19T15:12:48;14.90;;;7.95;;
46863;SDS011;32598;50.204;6.408;2023-01-19T15:15:14;19.35;;;7.90;;
46863;SDS011;32598;50.204;6.408;2023-01-19T15:17:40;17.42;;;8.00;;
46863;SDS011;32598;50.204;6.408;2023-01-19T15:20:10;13.60;;;7.55;;
46863;SDS011;32598;50.204;6.408;2023-01-19T15:22:37;16.55;;;8.18;;
46863;SDS011;32598;50.204;6.408;2023-01-19T15:25:02;14.68;;;8.32;;
46863;SDS011;32598;50.204;6.408;2023-01-19T15:27:28;17.05;;;9.00;;
46863;SDS011;32598;50.204;6.408;2023-01-19T15:29:55;18.02;;;9.05;;